Time;durP1;ratioP1;P1;durP2;ratioP2;P2;SDS_P1;SDS_P2;PMS_P1;PMS_P2;Temp;Humidity;BMP_temperature;BMP_pressure;BME280_temperature;BME280_humidity;BME280_pressure;Samples;Min_cycle;Max_cycle;Signal;HPM_P1;HPM_P2
2022/11/30 00:00:18;;;;;;;13.10;5.80;;;;;;;6.87;100.00;102277.59;5052905;28;20033;-35
2022/11/30 00:02:43;;;;;;;10.93;5.70;;;;;;;6.84;100.00;102275.16;5069115;28;20378;-36
2022/11/30 00:05:10;;;;;;;17.25;7.05;;;;;;;6.79;100.00;102280.91;5069710;28;20107;-38
2022/11/30 00:07:36;;;;;;;13.38;6.15;;;;;;;6.78;100.00;102276.50;5063896;28;20027;-37
2022/11/30 00:10:01;;;;;;;15.18;6.40;;;;;;;6.77;100.00;102285.53;5049636;28;20025;-36
2022/11/30 00:12:27;;;;;;;11.73;6.43;;;;;;;6.74;100.00;102283.09;5048933;28;20033;-35
2022/11/30 00:14:53;;;;;;;14.95;6.22;;;;;;;6.71;100.00;102285.13;5049545;28;20035;-35
2022/11/30 00:17:18;;;;;;;17.20;6.55;;;;;;;6.70;100.00;102289.66;5050553;28;20029;-36
2022/11/30 00:19:43;;;;;;;14.52;6.57;;;;;;;6.70;100.00;102281.63;5069519;28;20064;-38
2022/11/30 00:22:09;;;;;;;14.15;7.00;;;;;;;6.72;100.00;102278.84;5050265;28;20507;-37
2022/11/30 00:24:34;;;;;;;18.63;6.78;;;;;;;6.75;100.00;102282.09;5050119;28;20052;-36
2022/11/30 00:26:59;;;;;;;18.85;7.28;;;;;;;6.75;100.00;102290.13;5052603;28;20472;-38
2022/11/30 00:29:25;;;;;;;13.35;6.90;;;;;;;6.78;100.00;102281.88;5069961;28;20549;-37
2022/11/30 00:31:50;;;;;;;13.93;6.97;;;;;;;6.80;100.00;102285.28;5072306;28;20473;-35
2022/11/30 00:34:15;;;;;;;17.25;7.47;;;;;;;6.82;100.00;102282.50;5073076;28;20036;-39
2022/11/30 00:36:41;;;;;;;15.52;7.38;;;;;;;6.83;100.00;102281.50;5062257;28;20025;-39
2022/11/30 00:39:06;;;;;;;11.82;6.40;;;;;;;6.86;100.00;102280.41;5068317;28;20036;-38
2022/11/30 00:41:31;;;;;;;15.77;7.28;;;;;;;6.88;100.00;102281.16;5057944;28;20070;-37
2022/11/30 00:43:56;;;;;;;15.27;7.13;;;;;;;6.90;100.00;102273.81;5056764;28;20032;-36
2022/11/30 00:46:22;;;;;;;16.08;7.50;;;;;;;6.91;100.00;102271.03;5068249;28;20024;-36
2022/11/30 00:48:47;;;;;;;15.30;7.18;;;;;;;6.93;100.00;102279.78;5052922;28;20059;-36
2022/11/30 00:51:13;;;;;;;17.42;7.10;;;;;;;6.96;100.00;102271.50;5052762;28;20045;-38
2022/11/30 00:53:39;;;;;;;23.10;7.63;;;;;;;6.97;100.00;102275.88;5069600;28;20479;-36
2022/11/30 00:56:06;;;;;;;15.02;7.03;;;;;;;6.97;100.00;102270.53;5072645;28;20029;-37
2022/11/30 00:58:32;;;;;;;19.52;8.48;;;;;;;6.98;100.00;102274.09;5063546;28;20033;-38
2022/11/30 01:00:57;;;;;;;17.02;7.30;;;;;;;6.97;100.00;102272.38;5064294;28;20507;-37
2022/11/30 01:03:22;;;;;;;14.52;7.15;;;;;;;6.96;100.00;102268.84;5052414;28;20510;-37
2022/11/30 01:05:47;;;;;;;17.05;7.13;;;;;;;6.95;100.00;102276.97;5065535;28;20472;-38
2022/11/30 01:08:13;;;;;;;14.45;6.80;;;;;;;6.92;100.00;102271.88;5058689;28;20464;-36
2022/11/30 01:10:40;;;;;;;16.25;8.00;;;;;;;6.88;100.00;102271.28;5077117;28;20527;-35
2022/11/30 01:13:05;;;;;;;15.15;6.72;;;;;;;6.86;100.00;102272.38;5077217;28;20025;-35
2022/11/30 01:15:35;;;;;;;11.25;6.72;;;;;;;6.86;100.00;102283.94;5058271;28;20040;-35
2022/11/30 01:18:00;;;;;;;14.95;7.38;;;;;;;6.84;100.00;102285.88;5059920;28;20069;-37
2022/11/30 01:20:26;;;;;;;24.45;6.97;;;;;;;6.83;100.00;102278.81;5058456;28;20483;-37
2022/11/30 01:22:51;;;;;;;12.35;6.88;;;;;;;6.84;100.00;102274.31;5052148;28;20484;-36
2022/11/30 01:25:16;;;;;;;16.73;7.18;;;;;;;6.84;100.00;102280.50;5072775;28;20086;-36
2022/11/30 01:27:42;;;;;;;17.50;7.10;;;;;;;6.82;100.00;102285.16;5070069;28;20036;-35
2022/11/30 01:30:07;;;;;;;17.08;7.82;;;;;;;6.82;100.00;102282.50;5051342;28;20025;-37
2022/11/30 01:32:33;;;;;;;16.15;7.40;;;;;;;6.82;100.00;102283.34;5057584;28;20040;-37
2022/11/30 01:34:58;;;;;;;17.98;7.13;;;;;;;6.81;100.00;102281.63;5071830;28;20029;-37
2022/11/30 01:37:23;;;;;;;17.92;6.63;;;;;;;6.84;100.00;102279.66;5061142;28;20032;-35
2022/11/30 01:39:49;;;;;;;15.38;7.65;;;;;;;6.85;100.00;102284.91;5069579;28;20479;-34
2022/11/30 01:42:17;;;;;;;17.80;7.95;;;;;;;6.84;100.00;102279.66;5054068;28;20519;-36
2022/11/30 01:44:54;;;;;;;18.17;7.20;;;;;;;6.88;100.00;102289.19;5051131;28;20033;-37
2022/11/30 01:47:35;;;;;;;17.77;6.88;;;;;;;6.89;100.00;102288.19;5052827;28;20078;-38
2022/11/30 01:50:07;;;;;;;13.32;6.13;;;;;;;6.92;100.00;102287.94;5063924;28;20032;-36
2022/11/30 01:52:39;;;;;;;20.80;7.20;;;;;;;6.92;100.00;102287.94;5065351;28;20036;-36
2022/11/30 01:55:33;;;;;;;15.88;6.78;;;;;;;6.92;100.00;102287.94;5066643;28;20033;-35
2022/11/30 01:58:08;;;;;;;13.75;6.25;;;;;;;6.93;100.00;102289.66;5049847;28;20025;-37
2022/11/30 02:00:34;;;;;;;13.07;6.30;;;;;;;6.95;100.00;102293.03;5052517;28;20113;-38
2022/11/30 02:03:08;;;;;;;12.88;6.60;;;;;;;6.94;100.00;102294.03;5071361;28;20032;-35
2022/11/30 02:05:38;;;;;;;13.25;5.57;;;;;;;6.89;100.00;102299.75;5061700;28;20039;-35
2022/11/30 02:08:04;;;;;;;11.43;5.88;;;;;;;6.87;100.00;102295.47;5053680;28;20063;-35
2022/11/30 02:10:31;;;;;;;9.60;5.72;;;;;;;6.81;100.00;102289.63;5050542;28;20083;-36
2022/11/30 02:13:25;;;;;;;14.10;5.75;;;;;;;6.85;100.00;102292.94;5050884;28;20024;-35
2022/11/30 02:16:05;;;;;;;14.18;5.97;;;;;;;6.82;100.00;102283.34;5050523;28;20037;-37
2022/11/30 02:18:43;;;;;;;15.40;6.00;;;;;;;6.79;100.00;102290.72;5056908;28;20027;-38
2022/11/30 02:21:17;;;;;;;11.95;6.22;;;;;;;6.71;100.00;102285.97;5054842;28;20102;-36
2022/11/30 02:23:49;;;;;;;13.82;5.47;;;;;;;6.64;100.00;102290.16;5067671;28;20032;-36
2022/11/30 02:26:29;;;;;;;9.90;5.35;;;;;;;6.55;100.00;102291.69;5064677;28;20045;-38
2022/11/30 02:29:05;;;;;;;11.40;5.20;;;;;;;6.46;100.00;102288.91;5060890;28;20119;-35
2022/11/30 02:31:41;;;;;;;9.10;5.60;;;;;;;6.38;100.00;102290.34;5060345;28;20394;-35
2022/11/30 02:34:07;;;;;;;12.30;5.38;;;;;;;6.34;100.00;102293.38;5069385;28;20047;-38
2022/11/30 02:36:33;;;;;;;18.42;5.95;;;;;;;6.29;100.00;102291.06;5057043;28;20028;-34
2022/11/30 02:38:58;;;;;;;12.65;5.97;;;;;;;6.26;100.00;102293.97;5057035;28;20051;-35
2022/11/30 02:41:24;;;;;;;10.98;5.15;;;;;;;6.21;100.00;102297.97;5058472;28;20032;-36
2022/11/30 02:43:49;;;;;;;11.05;5.43;;;;;;;6.19;100.00;102295.41;5068483;28;20140;-35
2022/11/30 02:46:18;;;;;;;14.40;5.40;;;;;;;6.12;100.00;102289.69;5064801;28;20090;-37
2022/11/30 02:48:56;;;;;;;13.85;5.97;;;;;;;6.12;100.00;102291.50;5061412;28;21476;-35
2022/11/30 02:51:22;;;;;;;;;;;;;;;6.11;100.00;102292.50;5063790;28;20025;-36
2022/11/30 02:53:47;;;;;;;11.23;4.97;;;;;;;6.07;100.00;102288.31;5050787;28;19912;-36
2022/11/30 02:56:13;;;;;;;11.90;5.95;;;;;;;6.03;100.00;102292.19;5048208;28;20391;-35
2022/11/30 02:58:38;;;;;;;13.48;5.65;;;;;;;5.98;100.00;102294.34;5050345;28;20078;-35
2022/11/30 03:01:04;;;;;;;10.77;6.13;;;;;;;5.94;100.00;102297.28;5059356;28;20067;-35
2022/11/30 03:03:30;;;;;;;15.45;5.47;;;;;;;5.90;100.00;102289.59;5055458;28;20029;-35
2022/11/30 03:05:55;;;;;;;15.55;5.65;;;;;;;5.83;100.00;102293.69;5052406;28;20032;-34
2022/11/30 03:08:21;;;;;;;8.88;5.55;;;;;;;5.74;100.00;102292.56;5057383;28;20020;-36
2022/11/30 03:10:46;;;;;;;12.55;5.65;;;;;;;5.67;100.00;102294.81;5063805;28;20029;-36
2022/11/30 03:13:12;;;;;;;14.95;4.90;;;;;;;5.61;100.00;102297.97;5052252;28;20029;-36
2022/11/30 03:15:37;;;;;;;13.30;5.75;;;;;;;5.57;100.00;102295.63;5049984;28;20383;-35
2022/11/30 03:18:03;;;;;;;12.13;5.40;;;;;;;5.55;100.00;102294.88;5062701;28;20025;-35
2022/11/30 03:20:29;;;;;;;12.52;5.55;;;;;;;5.46;100.00;102302.59;5068835;28;20056;-37
2022/11/30 03:22:58;;;;;;;14.43;5.70;;;;;;;5.45;100.00;102297.38;5070175;28;20086;-35
2022/11/30 03:25:23;;;;;;;11.70;4.85;;;;;;;5.44;100.00;102301.00;5069725;28;20029;-34
2022/11/30 03:27:49;;;;;;;14.82;5.18;;;;;;;5.42;100.00;102306.44;5069458;28;20032;-34
2022/11/30 03:30:14;;;;;;;13.35;5.13;;;;;;;5.36;100.00;102306.91;5063567;28;20025;-37
2022/11/30 03:32:39;;;;;;;13.95;5.63;;;;;;;5.34;100.00;102310.66;5070968;28;20024;-36
2022/11/30 03:35:05;;;;;;;12.80;5.43;;;;;;;5.31;100.00;102309.06;5053832;28;20060;-38
2022/11/30 03:37:30;;;;;;;12.80;5.90;;;;;;;5.32;100.00;102305.44;5056672;28;20479;-38
2022/11/30 03:39:56;;;;;;;12.00;5.55;;;;;;;5.34;100.00;102313.31;5069881;28;20402;-37
2022/11/30 03:42:21;;;;;;;11.18;5.53;;;;;;;5.36;100.00;102314.91;5069414;28;20443;-35
2022/11/30 03:44:46;;;;;;;12.15;5.13;;;;;;;5.38;100.00;102318.34;5069731;28;20017;-36
2022/11/30 03:47:11;;;;;;;11.15;5.30;;;;;;;5.39;100.00;102314.69;5066034;28;20463;-36
2022/11/30 03:49:37;;;;;;;10.57;5.50;;;;;;;5.41;100.00;102310.09;5049884;28;20561;-37
2022/11/30 03:52:02;;;;;;;15.60;6.05;;;;;;;5.41;100.00;102312.78;5049714;28;20436;-37
2022/11/30 03:54:27;;;;;;;9.77;5.63;;;;;;;5.40;100.00;102316.41;5049851;28;20522;-38
2022/11/30 03:56:53;;;;;;;10.70;5.00;;;;;;;5.37;100.00;102323.78;5048738;28;20029;-36
2022/11/30 03:59:18;;;;;;;15.05;6.13;;;;;;;5.32;100.00;102318.78;5050237;28;20147;-36
2022/11/30 04:01:43;;;;;;;12.68;5.53;;;;;;;5.31;100.00;102325.06;5051779;28;20060;-39
2022/11/30 04:04:10;;;;;;;11.05;5.50;;;;;;;5.32;100.00;102324.13;5064548;28;20028;-38
2022/11/30 04:06:36;;;;;;;13.45;5.85;;;;;;;5.30;100.00;102323.38;5063478;28;20079;-36
2022/11/30 04:09:01;;;;;;;10.07;5.78;;;;;;;5.31;100.00;102319.75;5053918;28;20294;-39
2022/11/30 04:11:27;;;;;;;10.73;5.45;;;;;;;5.31;100.00;102325.06;5060631;28;20063;-39
2022/11/30 04:13:52;;;;;;;11.75;5.63;;;;;;;5.35;100.00;102326.56;5062969;28;20033;-36
2022/11/30 04:16:17;;;;;;;20.63;6.47;;;;;;;5.40;100.00;102335.09;5059372;28;20107;-37
2022/11/30 04:18:43;;;;;;;9.27;5.05;;;;;;;5.43;100.00;102331.38;5056670;28;20029;-37
2022/11/30 04:21:08;;;;;;;12.02;5.88;;;;;;;5.48;100.00;102330.06;5055603;28;20035;-37
2022/11/30 04:23:36;;;;;;;12.93;5.50;;;;;;;5.52;100.00;102329.81;5064615;28;20029;-36
2022/11/30 04:26:03;;;;;;;9.57;5.55;;;;;;;5.52;100.00;102332.50;5072492;28;20040;-38
2022/11/30 04:28:28;;;;;;;12.52;5.95;;;;;;;5.52;100.00;102329.81;5072807;28;20078;-38
2022/11/30 04:30:54;;;;;;;13.43;6.13;;;;;;;5.52;100.00;102332.50;5073643;28;20074;-36
2022/11/30 04:33:19;;;;;;;13.57;5.45;;;;;;;5.53;100.00;102323.50;5073866;28;20085;-38
2022/11/30 04:35:47;;;;;;;14.80;5.53;;;;;;;5.55;100.00;102329.59;5071822;28;20365;-36
2022/11/30 04:38:13;;;;;;;11.50;5.63;;;;;;;5.55;100.00;102332.28;5072585;28;20032;-38
2022/11/30 04:40:39;;;;;;;11.70;5.38;;;;;;;5.53;100.00;102323.50;5072088;28;20063;-39
2022/11/30 04:43:05;;;;;;;16.17;5.13;;;;;;;5.50;100.00;102328.13;5073032;28;20043;-37
2022/11/30 04:45:30;;;;;;;10.43;5.65;;;;;;;5.55;100.00;102337.59;5073257;28;20479;-37
2022/11/30 04:47:55;;;;;;;14.20;5.75;;;;;;;5.39;100.00;102330.72;5072900;28;20025;-37
2022/11/30 04:50:21;;;;;;;9.93;5.28;;;;;;;5.35;100.00;102331.91;5072545;28;20476;-38
2022/11/30 04:52:46;;;;;;;13.73;5.88;;;;;;;5.38;100.00;102337.03;5072638;28;20443;-35
2022/11/30 04:55:11;;;;;;;12.80;4.95;;;;;;;5.45;100.00;102335.63;5062077;28;20025;-37
2022/11/30 04:57:37;;;;;;;12.18;5.35;;;;;;;5.39;100.00;102337.88;5055485;28;20025;-37
2022/11/30 05:00:04;;;;;;;14.10;5.78;;;;;;;5.38;100.00;102338.84;5066406;28;20103;-36
2022/11/30 05:02:29;;;;;;;10.80;6.55;;;;;;;5.40;100.00;102340.44;5053670;28;20040;-36
2022/11/30 05:04:55;;;;;;;15.15;6.55;;;;;;;5.48;100.00;102342.56;5053810;28;20021;-36
2022/11/30 05:07:20;;;;;;;13.90;6.18;;;;;;;5.42;100.00;102338.50;5054589;28;20037;-36
2022/11/30 05:09:45;;;;;;;12.55;7.35;;;;;;;5.42;100.00;102340.31;5063816;28;20110;-36
2022/11/30 05:12:11;;;;;;;16.38;6.15;;;;;;;5.43;100.00;102342.03;5052379;28;20067;-36
2022/11/30 05:14:36;;;;;;;15.45;6.20;;;;;;;5.42;100.00;102340.31;5065243;28;20024;-36
2022/11/30 05:17:01;;;;;;;11.20;6.35;;;;;;;5.38;100.00;102347.72;5052063;28;20377;-37
2022/11/30 05:19:27;;;;;;;14.63;6.82;;;;;;;5.37;100.00;102343.34;5052277;28;20067;-36
2022/11/30 05:21:52;;;;;;;12.13;6.65;;;;;;;5.37;100.00;102351.34;5056245;28;20044;-36
2022/11/30 05:24:17;;;;;;;11.70;6.50;;;;;;;5.40;100.00;102344.94;5060523;28;20056;-36
2022/11/30 05:26:43;;;;;;;17.98;7.65;;;;;;;5.41;100.00;102352.81;5059456;28;20488;-39
2022/11/30 05:29:08;;;;;;;27.13;8.63;;;;;;;5.40;100.00;102342.28;5060326;28;20464;-36
2022/11/30 05:31:33;;;;;;;18.63;7.90;;;;;;;5.41;100.00;102344.81;5072282;28;20027;-36
2022/11/30 05:33:59;;;;;;;16.55;8.48;;;;;;;5.42;100.00;102351.00;5084833;28;20441;-38
2022/11/30 05:36:24;;;;;;;17.35;8.68;;;;;;;5.41;100.00;102346.63;5072441;28;20067;-36
2022/11/30 05:38:49;;;;;;;16.25;8.85;;;;;;;5.42;100.00;102343.84;5053528;28;20046;-36
2022/11/30 05:41:15;;;;;;;21.33;10.38;;;;;;;5.44;100.00;102349.91;5056603;28;20024;-36
2022/11/30 05:43:40;;;;;;;23.33;9.20;;;;;;;5.44;100.00;102349.91;5071994;28;20088;-37
2022/11/30 05:46:07;;;;;;;20.15;9.32;;;;;;;5.49;100.00;102358.44;5065097;28;20032;-38
2022/11/30 05:48:33;;;;;;;20.63;8.75;;;;;;;5.57;100.00;102363.25;5059011;28;20059;-36
2022/11/30 05:51:14;;;;;;;20.20;9.00;;;;;;;5.61;100.00;102366.53;5060717;28;20108;-35
2022/11/30 05:53:39;;;;;;;20.17;9.27;;;;;;;5.57;100.00;102365.06;5052417;28;20029;-38
2022/11/30 05:56:07;;;;;;;21.50;10.38;;;;;;;5.58;100.00;102356.94;5060879;28;20027;-37
2022/11/30 05:58:32;;;;;;;20.70;10.20;;;;;;;5.57;100.00;102359.72;5064169;28;20041;-36
2022/11/30 06:00:58;;;;;;;18.83;10.60;;;;;;;5.60;100.00;102360.34;5060245;28;20020;-36
2022/11/30 06:03:23;;;;;;;23.77;11.02;;;;;;;5.63;100.00;102367.28;5064585;28;20502;-36
2022/11/30 06:05:52;;;;;;;27.13;11.43;;;;;;;5.68;100.00;102362.44;5057855;28;20498;-36
2022/11/30 06:08:18;;;;;;;20.77;11.80;;;;;;;5.69;100.00;102372.19;5058893;28;20033;-35
2022/11/30 06:10:43;;;;;;;28.25;11.32;;;;;;;5.75;100.00;102369.06;5057631;28;20036;-36
2022/11/30 06:13:08;;;;;;;27.80;11.05;;;;;;;5.84;100.00;102378.19;5050970;28;20036;-36
2022/11/30 06:15:38;;;;;;;23.27;11.98;;;;;;;5.88;100.00;102377.03;5055553;28;20035;-36
2022/11/30 06:18:04;;;;;;;24.65;11.35;;;;;;;5.85;100.00;102380.78;5068109;28;20509;-36
2022/11/30 06:20:29;;;;;;;27.77;12.90;;;;;;;5.81;100.00;102381.09;5056614;28;20083;-36
2022/11/30 06:22:56;;;;;;;27.33;12.82;;;;;;;5.84;100.00;102379.06;5057482;28;20456;-36
2022/11/30 06:25:21;;;;;;;27.20;12.60;;;;;;;5.81;100.00;102376.59;5053001;28;20025;-36
2022/11/30 06:27:47;;;;;;;25.63;12.13;;;;;;;5.78;100.00;102382.19;5067329;28;20093;-37
2022/11/30 06:30:13;;;;;;;25.95;12.60;;;;;;;5.77;100.00;102380.50;5054854;28;20149;-35
2022/11/30 06:32:38;;;;;;;27.67;13.13;;;;;;;5.77;100.00;102388.50;5054730;28;20108;-38
2022/11/30 06:35:03;;;;;;;34.25;13.65;;;;;;;5.76;100.00;102383.25;5048861;28;20116;-35
2022/11/30 06:37:33;;;;;;;28.92;13.13;;;;;;;5.76;100.00;102385.94;5057361;28;20059;-35
2022/11/30 06:39:58;;;;;;;27.58;12.60;;;;;;;5.74;100.00;102380.72;5088416;28;20043;-36
2022/11/30 06:42:23;;;;;;;30.77;13.48;;;;;;;5.74;100.00;102383.38;5052614;28;20024;-35
2022/11/30 06:44:49;;;;;;;30.15;13.25;;;;;;;5.75;100.00;102386.91;5051371;28;20026;-36
2022/11/30 06:47:14;;;;;;;26.92;12.95;;;;;;;5.73;100.00;102395.03;5062715;28;20058;-36
2022/11/30 06:49:40;;;;;;;27.02;13.18;;;;;;;5.80;100.00;102390.94;5058925;28;20096;-36
2022/11/30 06:52:05;;;;;;;29.50;14.30;;;;;;;5.80;100.00;102390.94;5062313;28;20120;-37
2022/11/30 06:54:30;;;;;;;25.40;13.43;;;;;;;5.77;100.00;102385.00;5051363;28;20029;-36
2022/11/30 06:56:56;;;;;;;26.80;13.57;;;;;;;5.73;100.00;102384.34;5061354;28;20021;-35
2022/11/30 06:59:22;;;;;;;24.98;13.07;;;;;;;5.75;100.00;102402.94;5056729;28;20028;-38
2022/11/30 07:01:47;;;;;;;27.83;13.02;;;;;;;5.81;100.00;102402.47;5059969;28;20035;-36
2022/11/30 07:04:12;;;;;;;26.42;13.60;;;;;;;5.77;100.00;102396.53;5066919;28;20024;-37
2022/11/30 07:06:38;;;;;;;29.25;13.40;;;;;;;5.75;100.00;102398.44;5063539;28;20099;-36
2022/11/30 07:09:03;;;;;;;31.30;13.40;;;;;;;5.73;100.00;102392.34;5056670;28;20391;-36
2022/11/30 07:11:28;;;;;;;32.15;13.55;;;;;;;5.70;100.00;102401.44;5068083;28;20412;-40
2022/11/30 07:13:54;;;;;;;28.10;12.65;;;;;;;5.77;100.00;102412.56;5056268;28;20036;-37
2022/11/30 07:16:19;;;;;;;28.52;13.95;;;;;;;5.77;100.00;102409.03;5062369;28;20108;-38
2022/11/30 07:18:44;;;;;;;32.97;14.35;;;;;;;5.78;100.00;102413.41;5061550;28;20471;-38
2022/11/30 07:21:10;;;;;;;32.90;15.10;;;;;;;5.81;100.00;102415.84;5053319;28;20124;-36
2022/11/30 07:26:21;;;;;;;29.35;14.35;;;;;;;5.92;100.00;102421.25;5053068;28;20055;-38
2022/11/30 07:28:46;;;;;;;35.08;14.98;;;;;;;5.92;100.00;102427.47;5062833;28;20024;-35
2022/11/30 07:31:21;;;;;;;33.97;14.35;;;;;;;5.94;100.00;102424.69;5053910;28;20387;-38
2022/11/30 07:33:48;;;;;;;29.80;14.85;;;;;;;6.02;100.00;102437.50;5063872;28;20020;-37
2022/11/30 07:36:14;;;;;;;61.08;17.42;;;;;;;6.05;100.00;102439.94;5061278;28;20029;-37
2022/11/30 07:38:39;;;;;;;34.88;14.25;;;;;;;6.08;100.00;102453.06;5055102;28;20029;-36
2022/11/30 07:41:05;;;;;;;32.95;15.30;;;;;;;6.07;100.00;102441.53;5064975;28;20040;-36
2022/11/30 07:43:31;;;;;;;27.40;14.57;;;;;;;6.07;100.00;102446.03;5069589;28;21325;-38
2022/11/30 07:45:56;;;;;;;33.35;15.25;;;;;;;6.06;100.00;102441.66;5053744;28;20029;-38
2022/11/30 07:48:22;;;;;;;35.47;14.98;;;;;;;6.06;100.00;102445.19;5054091;28;20403;-37
2022/11/30 07:50:47;;;;;;;55.63;16.67;;;;;;;6.16;100.00;102445.34;5050478;28;20024;-36
2022/11/30 07:53:13;;;;;;;44.80;16.67;;;;;;;6.15;100.00;102448.97;5063415;28;20047;-36
2022/11/30 07:55:39;;;;;;;148.07;23.88;;;;;;;6.15;100.00;102443.63;5069341;28;20051;-35
2022/11/30 07:58:04;;;;;;;28.73;14.18;;;;;;;6.10;100.00;102448.47;5069321;28;20511;-35
2022/11/30 08:00:30;;;;;;;37.85;14.63;;;;;;;6.08;100.00;102445.03;5068246;28;20454;-35
2022/11/30 08:02:55;;;;;;;34.42;14.70;;;;;;;6.07;100.00;102449.53;5058847;28;20029;-36
2022/11/30 08:05:22;;;;;;;35.53;16.10;;;;;;;6.23;100.00;102462.63;5052660;28;20155;-36
2022/11/30 08:07:51;;;;;;;38.67;16.10;;;;;;;6.25;100.00;102466.06;5058218;28;20143;-36
2022/11/30 08:10:18;;;;;;;37.00;15.32;;;;;;;6.24;100.00;102469.69;5066302;28;20032;-35
2022/11/30 08:12:43;;;;;;;41.35;16.48;;;;;;;6.30;100.00;102469.25;5069278;28;20020;-36
2022/11/30 08:15:09;;;;;;;39.33;16.00;;;;;;;6.32;100.00;102478.00;5066259;28;20353;-37
2022/11/30 08:17:34;;;;;;;40.00;16.40;;;;;;;6.31;100.00;102470.94;5053289;28;20259;-37
2022/11/30 08:19:59;;;;;;;34.65;15.70;;;;;;;6.34;100.00;102470.69;5047132;28;20032;-36
2022/11/30 08:22:25;;;;;;;47.97;17.25;;;;;;;6.34;100.00;102470.69;5065701;28;20040;-36
2022/11/30 08:24:50;;;;;;;49.08;16.45;;;;;;;6.36;100.00;102479.47;5064654;28;20032;-36
2022/11/30 08:27:15;;;;;;;31.80;15.00;;;;;;;6.46;100.00;102476.13;5050726;28;20044;-36
2022/11/30 08:29:40;;;;;;;49.47;17.80;;;;;;;6.45;100.00;102479.75;5048591;28;20017;-36
2022/11/30 08:32:06;;;;;;;55.28;16.15;;;;;;;6.53;100.00;102485.38;5060682;28;20166;-36
2022/11/30 08:34:31;;;;;;;31.30;15.43;;;;;;;6.56;100.00;102485.16;5059225;28;20094;-35
2022/11/30 08:36:56;;;;;;;35.97;15.07;;;;;;;6.54;100.00;102489.78;5066262;28;20029;-36
2022/11/30 08:39:22;;;;;;;31.05;15.25;;;;;;;6.57;100.00;102486.88;5068871;28;20021;-36
2022/11/30 08:41:47;;;;;;;33.05;15.82;;;;;;;6.60;100.00;102497.31;5063756;28;20476;-38
2022/11/30 08:44:12;;;;;;;37.03;18.00;;;;;;;6.68;100.00;102489.56;5057854;28;20428;-35
2022/11/30 08:46:38;;;;;;;38.72;15.80;;;;;;;6.73;100.00;102484.72;5054133;28;20025;-35
2022/11/30 08:49:03;;;;;;;28.98;15.95;;;;;;;6.74;100.00;102483.78;5061883;28;20028;-35
2022/11/30 08:51:29;;;;;;;31.77;16.08;;;;;;;6.75;100.00;102489.97;5052386;28;20079;-36
2022/11/30 08:53:54;;;;;;;35.78;16.40;;;;;;;6.89;100.00;102496.94;5063214;28;20025;-39
2022/11/30 08:56:22;;;;;;;36.10;16.58;;;;;;;7.02;100.00;102492.34;5072659;28;20044;-36
2022/11/30 08:58:47;;;;;;;37.47;16.77;;;;;;;6.95;100.00;102496.47;5072705;28;20028;-36
2022/11/30 09:01:15;;;;;;;44.28;17.17;;;;;;;6.91;100.00;102490.50;5067078;28;20155;-36
2022/11/30 09:03:41;;;;;;;49.08;16.85;;;;;;;6.93;100.00;102493.06;5059716;28;20386;-36
2022/11/30 09:06:09;;;;;;;54.28;17.70;;;;;;;6.94;100.00;102494.78;5070928;28;20032;-37
2022/11/30 09:08:35;;;;;;;59.00;18.60;;;;;;;6.94;100.00;102494.78;5058803;28;20029;-37
2022/11/30 09:11:13;;;;;;;61.45;17.98;;;;;;;6.98;100.00;102491.75;5071489;28;20501;-36
2022/11/30 09:13:38;;;;;;;55.08;16.77;;;;;;;7.06;100.00;102501.88;5068208;28;20048;-36
2022/11/30 09:16:04;;;;;;;43.78;15.95;;;;;;;7.12;100.00;102498.72;5070905;28;20028;-37
2022/11/30 09:18:30;;;;;;;45.83;18.27;;;;;;;7.14;100.00;102496.78;5067042;28;20460;-36
2022/11/30 09:21:00;;;;;;;49.28;18.35;;;;;;;7.19;100.00;102502.63;5071166;28;20025;-36
2022/11/30 09:23:26;;;;;;;35.13;17.05;;;;;;;7.28;100.00;102500.19;5052414;28;20075;-37
2022/11/30 09:25:59;;;;;;;32.80;17.63;;;;;;;7.30;100.00;102508.97;5072413;28;20072;-35
2022/11/30 09:28:25;;;;;;;41.78;18.38;;;;;;;7.41;100.00;102507.16;5067301;28;20078;-35
2022/11/30 09:30:51;;;;;;;39.63;19.05;;;;;;;7.49;100.00;102517.25;5060074;28;20421;-36
2022/11/30 09:33:16;;;;;;;41.60;19.23;;;;;;;7.54;100.00;102519.59;5051496;28;20112;-36
2022/11/30 09:35:42;;;;;;;41.28;18.25;;;;;;;7.60;100.00;102514.56;5057373;28;20066;-36
2022/11/30 09:38:07;;;;;;;38.80;18.50;;;;;;;7.61;100.00;102518.97;5059403;28;20128;-37
2022/11/30 09:40:35;;;;;;;37.00;18.35;;;;;;;7.61;100.00;102521.66;5066279;28;20472;-38
2022/11/30 09:43:14;;;;;;;37.17;18.98;;;;;;;7.66;100.00;102519.47;5061036;28;20048;-37
2022/11/30 09:45:43;;;;;;;42.50;17.40;;;;;;;7.73;100.00;102514.47;5044913;28;20430;-35
2022/11/30 09:48:14;;;;;;;38.17;18.20;;;;;;;7.80;100.00;102520.19;5049221;28;20025;-37
2022/11/30 09:50:42;;;;;;;36.72;18.00;;;;;;;7.93;100.00;102523.59;5063754;28;20036;-38
2022/11/30 09:53:18;;;;;;;43.22;17.38;;;;;;;8.19;100.00;102525.97;5051341;28;20025;-36
2022/11/30 09:55:43;;;;;;;38.45;18.48;;;;;;;8.32;100.00;102532.03;5049296;28;20079;-36
2022/11/30 09:58:38;;;;;;;34.47;17.05;;;;;;;8.44;100.00;102531.06;5049374;28;20028;-38
2022/11/30 10:01:04;;;;;;;41.50;18.42;;;;;;;8.59;100.00;102528.13;5052897;28;20399;-38
2022/11/30 10:03:30;;;;;;;37.72;18.05;;;;;;;8.53;100.00;102524.09;5053815;28;20317;-38
2022/11/30 10:06:07;;;;;;;34.92;17.20;;;;;;;8.60;100.00;102525.28;5059769;28;20483;-35
2022/11/30 10:08:57;;;;;;;45.95;19.55;;;;;;;8.67;100.00;102522.97;5066520;28;20278;-38
2022/11/30 10:11:37;;;;;;;31.38;16.77;;;;;;;8.77;100.00;102523.91;5054326;28;20591;-36
2022/11/30 10:14:21;;;;;;;41.08;17.77;;;;;;;8.79;100.00;102519.22;5056820;28;20030;-37
2022/11/30 10:16:50;;;;;;;33.67;16.92;;;;;;;8.67;100.00;102526.50;5051620;28;20368;-37
2022/11/30 10:19:38;;;;;;;35.80;17.98;;;;;;;8.66;100.00;102524.81;5050445;28;20341;-36
2022/11/30 10:22:06;;;;;;;38.65;18.02;;;;;;;8.71;100.00;102516.34;5051928;28;20124;-35
2022/11/30 10:24:32;;;;;;;;;;;;;;;8.77;100.00;102515.84;5060165;28;20024;-38
2022/11/30 10:26:57;;;;;;;37.00;17.13;;;;;;;8.82;100.00;102518.13;5051230;28;19917;-36
2022/11/30 10:29:29;;;;;;;41.13;17.15;;;;;;;8.80;100.00;102518.28;5059025;28;20299;-36
2022/11/30 10:31:59;;;;;;;43.10;18.70;;;;;;;8.81;100.00;102517.28;5058583;28;20025;-36
2022/11/30 10:34:32;;;;;;;35.58;18.65;;;;;;;8.83;100.00;102512.63;5059926;28;20060;-38
2022/11/30 10:37:11;;;;;;;34.80;17.15;;;;;;;8.82;100.00;102513.63;5066717;28;20035;-36
2022/11/30 10:39:43;;;;;;;57.78;18.42;;;;;;;8.89;100.00;102511.25;5060683;28;20028;-36
2022/11/30 10:42:15;;;;;;;35.30;16.48;;;;;;;8.89;100.00;102508.56;5068831;28;20430;-37
2022/11/30 10:44:43;;;;;;;33.53;16.60;;;;;;;9.04;100.00;102506.44;5067928;28;20024;-35
2022/11/30 10:47:19;;;;;;;40.38;18.38;;;;;;;9.19;100.00;102505.13;5067135;28;20029;-36
2022/11/30 10:49:48;;;;;;;32.90;16.00;;;;;;;9.31;100.00;102503.19;5063256;28;20151;-36
2022/11/30 10:52:18;;;;;;;33.67;17.00;;;;;;;9.27;100.00;102497.25;5077801;28;20589;-36
2022/11/30 10:54:43;;;;;;;29.52;15.18;;;;;;;9.38;100.00;102497.16;5070092;28;20082;-35
2022/11/30 10:57:08;;;;;;;37.22;16.60;;;;;;;9.30;100.00;102491.59;5064579;28;20060;-37
2022/11/30 10:59:47;;;;;;;28.25;15.73;;;;;;;9.40;100.00;102492.50;5057805;28;20065;-36
2022/11/30 11:02:50;;;;;;;31.27;15.50;;;;;;;9.17;100.00;102491.81;5054805;28;20384;-38
2022/11/30 11:05:25;;;;;;;24.08;15.27;;;;;;;9.18;100.00;102488.13;5060677;28;20024;-35
2022/11/30 11:08:16;;;;;;;26.85;15.90;;;;;;;9.23;100.00;102493.94;5065373;28;20060;-36
2022/11/30 11:10:43;;;;;;;32.53;16.38;;;;;;;9.16;100.00;102489.25;5068844;28;20025;-37
2022/11/30 11:13:40;;;;;;;32.85;15.45;;;;;;;9.11;100.00;102486.09;5069770;28;20037;-37
2022/11/30 11:16:08;;;;;;;25.67;15.60;;;;;;;9.16;100.00;102486.56;5050641;28;20064;-37
2022/11/30 11:18:51;;;;;;;27.95;16.05;;;;;;;9.17;100.00;102482.91;5049789;28;20408;-36